AAL2134 KDFW-CYVR
Flight info
| Callsign | AAL2134 |
|---|---|
| Flight time | N/A |
| Altitude | 36000 |
| Route | KDFW LARRN GIGEM RBBIT LYNDE CIKAN ANTEJ WESEV BOOTH GOPAD OBTOT GOREG MARUT TOTIM UDNAR CYVR |
| Aircraft | B738/M-V/N |
Departure
| Time | 2026-05-03 21:48 |
|---|---|
| Airport | Dallas Fort Worth International Airport (KDFW) |
Arrival
| Time | N/A |
|---|---|
| Airport | Vancouver International Airport (CYVR) |
| Time | Latitude | Longitude | Altitude | Speed | Heading |
|---|---|---|---|---|---|
| 2026-05-03 20:42 | 32.90434 | -97.03498 | 567 ft | 0 kts | 287° |
| 2026-05-03 21:26 | 32.90434 | -97.03497 | 597 ft | 1 kts | 287° |
| 2026-05-03 21:27 | 32.90431 | -97.03483 | 597 ft | 2 kts | 287° |
| 2026-05-03 21:27 | 32.90427 | -97.03469 | 597 ft | 2 kts | 287° |
| 2026-05-03 21:27 | 32.90423 | -97.03453 | 596 ft | 2 kts | 287° |
| 2026-05-03 21:27 | 32.90419 | -97.03438 | 596 ft | 2 kts | 287° |
| 2026-05-03 21:28 | 32.90416 | -97.03426 | 596 ft | 0 kts | 287° |
| 2026-05-03 21:37 | 32.90417 | -97.03428 | 596 ft | 1 kts | 289° |
| 2026-05-03 21:37 | 32.90422 | -97.03431 | 596 ft | 0 kts | 332° |
| 2026-05-03 21:38 | 32.90425 | -97.03430 | 596 ft | 1 kts | 1° |
| 2026-05-03 21:38 | 32.90428 | -97.03421 | 596 ft | 1 kts | 80° |
| 2026-05-03 21:38 | 32.90423 | -97.03399 | 596 ft | 8 kts | 105° |
| 2026-05-03 21:38 | 32.90408 | -97.03359 | 596 ft | 6 kts | 98° |
| 2026-05-03 21:39 | 32.90439 | -97.03318 | 596 ft | 10 kts | 25° |
| 2026-05-03 21:39 | 32.90519 | -97.03313 | 596 ft | 13 kts | 360° |
| 2026-05-03 21:39 | 32.90589 | -97.03313 | 596 ft | 11 kts | 0° |
| 2026-05-03 21:39 | 32.90664 | -97.03313 | 596 ft | 12 kts | 0° |
| 2026-05-03 21:40 | 32.90741 | -97.03311 | 596 ft | 16 kts | 1° |
| 2026-05-03 21:40 | 32.90853 | -97.03311 | 596 ft | 16 kts | 360° |
| 2026-05-03 21:40 | 32.90936 | -97.03311 | 596 ft | 15 kts | 360° |
| 2026-05-03 21:40 | 32.91025 | -97.03286 | 596 ft | 15 kts | 15° |
| 2026-05-03 21:41 | 32.91112 | -97.03274 | 595 ft | 14 kts | 1° |
| 2026-05-03 21:41 | 32.91199 | -97.03275 | 596 ft | 14 kts | 360° |
| 2026-05-03 21:41 | 32.91277 | -97.03275 | 596 ft | 13 kts | 359° |
| 2026-05-03 21:41 | 32.91559 | -97.03086 | 581 ft | 0 kts | 90° |
| 2026-05-03 21:47 | 32.91372 | -97.02991 | 579 ft | 0 kts | 180° |
| 2026-05-03 21:47 | 32.91241 | -97.02992 | 581 ft | 56 kts | 180° |
| 2026-05-03 21:47 | 32.90680 | -97.03003 | 579 ft | 123 kts | 181° |
| 2026-05-03 21:48 | 32.89638 | -97.03025 | 688 ft | 174 kts | 181° |
| 2026-05-03 21:48 | 32.88620 | -97.03033 | 1186 ft | 187 kts | 181° |
| 2026-05-03 21:48 | 32.87427 | -97.03027 | 1804 ft | 196 kts | 181° |
| 2026-05-03 21:48 | 32.86507 | -97.03031 | 2244 ft | 199 kts | 182° |
| 2026-05-03 21:49 | 32.84871 | -97.03017 | 2958 ft | 198 kts | 181° |
| 2026-05-03 21:49 | 32.83733 | -97.02994 | 3364 ft | 195 kts | 181° |
| 2026-05-03 21:49 | 32.82576 | -97.02957 | 3779 ft | 194 kts | 180° |
| 2026-05-03 21:49 | 32.81200 | -97.02935 | 4163 ft | 197 kts | 181° |
| 2026-05-03 21:50 | 32.80029 | -97.02904 | 4430 ft | 200 kts | 180° |
| 2026-05-03 21:50 | 32.78861 | -97.02879 | 4684 ft | 205 kts | 181° |
| 2026-05-03 21:50 | 32.77939 | -97.02867 | 4863 ft | 209 kts | 181° |
| 2026-05-03 21:50 | 32.76627 | -97.02802 | 5079 ft | 215 kts | 176° |
| 2026-05-03 21:51 | 32.75442 | -97.02440 | 5025 ft | 234 kts | 158° |
| 2026-05-03 21:51 | 32.73993 | -97.01263 | 4660 ft | 267 kts | 140° |
| 2026-05-03 21:51 | 32.72910 | -96.99858 | 4607 ft | 278 kts | 134° |
| 2026-05-03 21:51 | 32.71874 | -96.98236 | 4802 ft | 278 kts | 127° |
| 2026-05-03 21:52 | 32.71014 | -96.96593 | 5238 ft | 265 kts | 124° |
| 2026-05-03 21:52 | 32.70245 | -96.95017 | 6038 ft | 240 kts | 124° |
| 2026-05-03 21:52 | 32.69557 | -96.93619 | 6821 ft | 218 kts | 124° |
| 2026-05-03 21:52 | 32.68842 | -96.92078 | 7003 ft | 204 kts | 114° |
| 2026-05-03 21:53 | 32.68677 | -96.91337 | 6872 ft | 204 kts | 101° |
| 2026-05-03 21:53 | 32.68628 | -96.90357 | 6560 ft | 209 kts | 91° |
| 2026-05-03 21:53 | 32.68731 | -96.89346 | 6017 ft | 225 kts | 79° |
| 2026-05-03 21:53 | 32.69170 | -96.87936 | 5438 ft | 237 kts | 63° |
| 2026-05-03 21:54 | 32.69654 | -96.87121 | 5253 ft | 236 kts | 49° |
| 2026-05-03 21:54 | 32.70410 | -96.86367 | 5131 ft | 230 kts | 30° |
| 2026-05-03 21:54 | 32.71706 | -96.85872 | 4918 ft | 227 kts | 356° |
| 2026-05-03 21:54 | 32.72164 | -96.85906 | 4878 ft | 223 kts | 347° |
| 2026-05-03 21:55 | 32.73128 | -96.86320 | 4756 ft | 237 kts | 327° |
| 2026-05-03 21:55 | 32.74158 | -96.87015 | 4719 ft | 232 kts | 327° |
| 2026-05-03 21:55 | 32.75358 | -96.87763 | 4682 ft | 233 kts | 331° |
| 2026-05-03 21:55 | 32.76410 | -96.88319 | 4548 ft | 239 kts | 334° |
| 2026-05-03 21:56 | 32.77577 | -96.88885 | 4529 ft | 232 kts | 334° |
| 2026-05-03 21:56 | 32.78799 | -96.89496 | 4496 ft | 224 kts | 333° |
| 2026-05-03 21:56 | 32.79700 | -96.89972 | 4368 ft | 219 kts | 332° |
| 2026-05-03 21:56 | 32.80474 | -96.90409 | 4184 ft | 217 kts | 329° |
| 2026-05-03 21:57 | 32.81116 | -96.90824 | 3910 ft | 219 kts | 327° |
| 2026-05-03 21:57 | 32.81967 | -96.91426 | 3534 ft | 221 kts | 323° |
| 2026-05-03 21:57 | 32.82649 | -96.91966 | 3281 ft | 222 kts | 320° |
| 2026-05-03 21:57 | 32.83552 | -96.92809 | 2979 ft | 223 kts | 317° |
| 2026-05-03 21:58 | 32.84121 | -96.93348 | 2724 ft | 223 kts | 318° |
| 2026-05-03 21:58 | 32.84936 | -96.94082 | 2306 ft | 229 kts | 319° |
| 2026-05-03 21:58 | 32.85733 | -96.94783 | 1853 ft | 233 kts | 318° |
| 2026-05-03 21:58 | 32.86276 | -96.95385 | 1664 ft | 225 kts | 304° |
| 2026-05-03 21:59 | 32.86913 | -96.96325 | 1588 ft | 209 kts | 302° |
| 2026-05-03 21:59 | 32.87606 | -96.97396 | 1416 ft | 200 kts | 303° |
| 2026-05-03 21:59 | 32.88187 | -96.98296 | 1196 ft | 197 kts | 303° |
| 2026-05-03 21:59 | 32.88840 | -96.99262 | 905 ft | 197 kts | 310° |
| 2026-05-03 22:00 | 32.89494 | -97.00086 | 668 ft | 195 kts | 315° |
| 2026-05-03 22:00 | 32.90196 | -97.00879 | 536 ft | 146 kts | 317° |
| 2026-05-03 22:00 | 32.90497 | -97.01237 | 541 ft | 27 kts | 312° |
| 2026-05-03 22:00 | 32.90507 | -97.01250 | 541 ft | 0 kts | 312° |
| 2026-05-03 22:01 | 32.90510 | -97.01254 | 541 ft | 8 kts | 312° |
| 2026-05-03 22:01 | 32.90582 | -97.01348 | 541 ft | 25 kts | 312° |